WHTO2: S Canadian Riv, Whitefield, OK

Data processed at Fri Dec 08 2017 23:46


All information presented herein is the property of the government of the United States of America and may be revised or deleted at any time without prior notice.
Dissemination of this information without the expressed written consent of the Public Affairs Office, Tulsa District U.S. Army Corps of Engineers is strictly prohibited.
These data are gathered electronically and, as presented, have not undergone any form of quality control. These data are not guaranteed to be valid or correct.
Go to home page.
Go to station list.

Upstream stations:

Downstream station:
Previous Day
Next Day
Current Day
    
SHEF ID:       WHTO2     Canadian River near Whitefield,
STATION TYPE:  

               PRECIP     STAGE  RIV-FLOW  BAT-LOAD
                   in        ft       cfs      volt
              Ccp-Rev   Ccp-Rev   Ccp-Rev   Ccp-Rev
(US/Central)
12/06 00:00      0.00      6.34     11054     12.65
12/06 01:00      0.00      5.82      9045     12.65
12/06 02:00      0.00      5.24      7082     12.65
12/06 03:00      0.00      4.67      5323     12.65
12/06 04:00      0.00      4.17      4028     12.65
12/06 05:00      0.00      3.71      3005     12.57
12/06 06:00      0.00      3.31      2246     12.57
12/06 07:00      0.00      2.98      1640     12.57
12/06 08:00      0.00      2.74      1239     12.49
12/06 09:00      0.00      2.99      1658     12.57
12/06 10:00      0.00      4.76      5580     13.29
12/06 11:00      0.00      5.87      9228     13.68
12/06 12:00      0.00      6.36     11137     13.53
12/06 13:00      0.00      6.59     12107     13.44
12/06 14:00      0.00      6.35     11095     13.29
12/06 15:00      0.00      5.82      9045     13.29
12/06 16:00      0.00      5.22      7017     13.21
12/06 17:00      0.00      4.66      5295     13.05
12/06 18:00      0.00      4.15      3981     12.81
12/06 19:00      0.00      3.70      2985     12.73
12/06 20:00      0.00      3.90      3411     12.73
12/06 21:00      0.00      5.15      6785     12.73
12/06 22:00      0.00      5.99      9675     12.73
12/06 23:00      0.00      6.03      9828     12.73